Time;durP1;ratioP1;P1;durP2;ratioP2;P2;SDS_P1;SDS_P2;PMS_P1;PMS_P2;Temp;Humidity;BMP_temperature;BMP_pressure;BME280_temperature;BME280_humidity;BME280_pressure;Samples;Min_cycle;Max_cycle;Signal;HPM_P1;HPM_P2
2023/08/18 00:02:45;;;;;;;14.40;12.98;;;;;;;-144.30;50.89;83889.91;5086924;28;20713;-48
2023/08/18 00:06:01;;;;;;;;;;;;;;;;;;;;;
2023/08/18 00:09:11;;;;;;;6.93;6.22;;;;;;;-144.30;50.76;83872.03;5088785;28;20757;-55
2023/08/18 00:15:07;;;;;;;6.90;6.40;;;;;;;-144.30;50.72;83848.19;5090650;28;20293;-47
2023/08/18 00:18:10;;;;;;;6.28;5.80;;;;;;;-144.30;50.89;83903.81;5089973;28;20314;-48
2023/08/18 00:20:44;;;;;;;6.40;5.80;;;;;;;-144.30;50.92;83897.84;5088812;28;20218;-48
2023/08/18 00:23:41;;;;;;;6.63;5.82;;;;;;;-144.30;50.93;83866.06;5090251;28;20633;-55
2023/08/18 00:26:55;;;;;;;7.50;6.55;;;;;;;-144.30;50.99;83874.00;5089578;28;20214;-48
2023/08/18 00:39:32;;;;;;;7.95;7.30;;;;;;;-144.30;51.74;83925.66;5086924;28;20280;-54
2023/08/18 00:42:43;;;;;;;10.88;6.65;;;;;;;-144.30;52.05;83927.66;5088605;28;20199;-54
2023/08/18 00:46:01;;;;;;;8.75;6.35;;;;;;;-144.30;51.86;83887.91;5088251;28;20195;-54
2023/08/18 00:55:26;;;;;;;12.52;6.95;;;;;;;-144.30;52.53;83973.38;5086165;28;20276;-46
2023/08/18 01:01:14;;;;;;;7.82;6.72;;;;;;;-144.30;53.67;83961.44;5088037;28;20231;-55
2023/08/18 01:04:25;;;;;;;9.07;6.82;;;;;;;-144.30;54.38;83951.50;5088744;28;20691;-54
2023/08/18 01:13:39;;;;;;;12.07;7.25;;;;;;;-144.30;55.23;84040.91;5088520;28;20191;-54
2023/08/18 01:16:39;;;;;;;7.68;6.95;;;;;;;-144.30;55.68;84068.75;5087301;28;20582;-53
2023/08/18 01:22:59;;;;;;;7.15;6.53;;;;;;;-144.30;56.99;84120.41;5088538;28;20203;-47
2023/08/18 01:26:23;;;;;;;7.80;7.03;;;;;;;-144.30;57.53;84136.31;5089706;28;20198;-47
2023/08/18 01:29:31;;;;;;;7.05;6.45;;;;;;;-144.30;57.65;84132.34;5089194;28;20213;-55
2023/08/18 01:32:30;;;;;;;8.50;7.38;;;;;;;-144.30;57.88;84132.34;5085108;28;20203;-54
2023/08/18 01:38:16;;;;;;;7.00;6.47;;;;;;;-144.30;58.44;84138.28;5087674;28;20212;-54
2023/08/18 01:41:36;;;;;;;7.97;7.15;;;;;;;-144.30;59.20;84168.09;5084076;28;20222;-47
2023/08/18 01:44:35;;;;;;;7.28;6.78;;;;;;;-144.30;59.22;84172.06;5087864;28;20195;-47
2023/08/18 01:50:37;;;;;;;8.88;7.40;;;;;;;-144.30;60.08;84201.88;5088371;28;20195;-48
2023/08/18 01:53:29;;;;;;;8.13;7.43;;;;;;;-144.30;60.21;84168.09;5086744;28;20199;-53
2023/08/18 01:59:43;;;;;;;7.80;7.07;;;;;;;-144.30;59.48;84199.91;5088083;28;20592;-47
2023/08/18 02:05:45;;;;;;;8.30;7.38;;;;;;;-144.30;59.67;84187.97;5047834;28;20266;-53
2023/08/18 02:08:45;;;;;;;9.07;8.32;;;;;;;-144.30;59.82;84191.94;5049014;28;20204;-47
2023/08/18 02:11:54;;;;;;;8.68;7.88;;;;;;;-144.30;60.10;84207.84;5049045;28;20624;-53
2023/08/18 02:14:53;;;;;;;9.05;7.65;;;;;;;-144.30;60.70;84172.06;5047034;28;20197;-47
2023/08/18 02:17:55;;;;;;;8.82;7.72;;;;;;;-144.30;61.30;84249.59;5047255;28;20213;-54
2023/08/18 02:21:05;;;;;;;12.50;7.60;;;;;;;-144.30;61.64;84251.56;5048860;28;20220;-54
2023/08/18 02:23:52;;;;;;;9.15;7.20;;;;;;;-144.30;61.44;84227.72;5049065;28;20288;-54
2023/08/18 02:27:05;;;;;;;11.15;8.10;;;;;;;-144.30;61.51;84265.47;5045176;28;20208;-47
2023/08/18 02:32:57;;;;;;;8.95;7.95;;;;;;;-144.30;61.89;84215.78;5051429;28;20219;-47
2023/08/18 02:35:49;;;;;;;13.13;8.50;;;;;;;-144.30;62.34;84217.78;5052453;28;20204;-47
2023/08/18 02:38:57;;;;;;;13.38;7.78;;;;;;;-144.30;63.24;84251.56;5051991;28;20696;-54
2023/08/18 02:48:08;;;;;;;14.88;9.65;;;;;;;-144.30;64.31;84257.53;5049877;28;20279;-54
2023/08/18 02:54:04;;;;;;;16.80;8.55;;;;;;;-144.30;65.04;84315.16;5049819;28;20664;-47
2023/08/18 02:56:59;;;;;;;13.38;9.23;;;;;;;-144.30;65.30;84281.38;5051941;28;20200;-59
2023/08/18 02:59:58;;;;;;;12.40;8.05;;;;;;;-144.30;65.81;84337.03;5050025;28;20232;-48
2023/08/18 03:05:43;;;;;;;11.65;8.55;;;;;;;-144.30;64.84;84325.09;5076314;28;20211;-54
2023/08/18 03:08:43;;;;;;;9.60;8.40;;;;;;;-144.30;64.88;84327.09;5071483;28;20196;-46
2023/08/18 03:11:28;;;;;;;11.85;8.75;;;;;;;-144.30;65.11;84352.91;5071576;28;20596;-53
2023/08/18 03:14:03;;;;;;;9.15;7.97;;;;;;;-144.30;65.28;84370.81;5071262;28;20195;-47
2023/08/18 03:16:45;;;;;;;11.98;9.00;;;;;;;-144.30;65.66;84374.78;5071447;28;20199;-48
2023/08/18 03:19:32;;;;;;;9.35;8.25;;;;;;;-144.30;65.45;84321.13;5074974;28;20225;-55
2023/08/18 03:22:10;;;;;;;11.32;8.75;;;;;;;-144.30;65.37;84390.69;5090240;28;20199;-49
2023/08/18 03:24:49;;;;;;;12.65;9.23;;;;;;;-144.30;65.66;84360.88;5091302;28;20257;-54
2023/08/18 03:27:21;;;;;;;15.40;9.15;;;;;;;-144.30;65.84;84376.78;5091217;28;20659;-54
2023/08/18 03:30:00;;;;;;;16.10;9.25;;;;;;;-144.30;65.91;84350.94;5091371;28;20588;-48
2023/08/18 03:32:43;;;;;;;11.23;8.75;;;;;;;-144.30;65.76;84358.88;5091034;28;20195;-48
2023/08/18 03:35:31;;;;;;;16.05;9.20;;;;;;;-144.30;65.73;84396.66;5091240;28;20206;-48
2023/08/18 03:38:08;;;;;;;14.77;9.23;;;;;;;-144.30;65.98;84380.75;5071019;28;20208;-55
2023/08/18 03:50:28;;;;;;;;;;;;;;;;;;;;;
2023/08/18 03:59:32;;;;;;;11.75;9.45;;;;;;;-144.30;64.72;84337.03;5085334;28;20894;-55
2023/08/18 04:02:05;;;;;;;12.25;9.02;;;;;;;-144.30;64.45;84358.88;5089298;28;20739;-46
2023/08/18 04:04:36;;;;;;;13.25;9.32;;;;;;;-144.30;64.03;84267.47;5085008;28;20796;-46
2023/08/18 04:07:18;;;;;;;12.07;8.98;;;;;;;-144.30;63.89;84307.22;5089615;28;20835;-45
2023/08/18 04:09:59;;;;;;;9.88;8.85;;;;;;;-144.30;63.51;84257.53;5090430;28;20574;-55
2023/08/18 04:12:32;;;;;;;13.70;10.77;;;;;;;-144.30;63.87;84261.50;5089098;28;20195;-55
2023/08/18 04:15:06;;;;;;;14.02;10.52;;;;;;;-144.30;63.02;84195.94;5089234;28;20268;-56
2023/08/18 04:17:53;;;;;;;20.33;11.93;;;;;;;-144.30;61.28;84160.16;5088170;28;20228;-57
2023/08/18 04:20:46;;;;;;;16.48;10.40;;;;;;;-144.30;59.10;84031.00;5089346;28;20310;-56
2023/08/18 04:23:44;;;;;;;13.43;10.52;;;;;;;-144.30;57.06;83897.84;5088722;28;20214;-56
2023/08/18 04:26:59;;;;;;;;;;;;;;;;;;;;;
2023/08/18 04:29:55;;;;;;;9.77;8.60;;;;;;;-144.30;51.18;83770.69;5089552;28;20206;-55
2023/08/18 04:32:51;;;;;;;10.55;9.45;;;;;;;-144.30;49.27;83496.50;5089529;28;20195;-55
2023/08/18 04:35:57;;;;;;;9.98;8.43;;;;;;;-144.30;46.97;83361.38;5086310;28;20195;-47
2023/08/18 04:42:11;;;;;;;8.88;8.18;;;;;;;-144.30;42.64;82975.97;5089210;28;20718;-47
2023/08/18 04:44:43;;;;;;;12.55;10.15;;;;;;;-144.30;40.33;82817.06;5090351;28;20195;-47
2023/08/18 04:47:11;;;;;;;10.45;9.40;;;;;;;-144.30;39.01;82638.28;5090287;28;20683;-47
2023/08/18 04:49:49;;;;;;;36.13;28.48;;;;;;;-144.30;37.71;82497.25;5090373;28;20205;-47
2023/08/18 04:52:20;;;;;;;12.63;7.72;;;;;;;-144.30;36.53;82356.22;5089542;28;20284;-47
2023/08/18 04:54:59;;;;;;;10.30;6.90;;;;;;;-144.30;35.19;82147.69;5089018;28;20195;-47
2023/08/18 04:57:55;;;;;;;9.43;7.10;;;;;;;-144.30;34.21;81947.09;5090168;28;20290;-46
2023/08/18 05:00:42;;;;;;;9.63;7.97;;;;;;;-144.30;33.48;81871.63;5089498;28;20775;-48
2023/08/18 05:03:22;;;;;;;9.85;8.95;;;;;;;-144.30;32.77;81661.13;5089363;28;20235;-47
2023/08/18 05:06:17;;;;;;;18.55;9.77;;;;;;;-144.30;32.56;81669.06;5089916;28;20289;-46
2023/08/18 05:08:54;;;;;;;12.75;11.38;;;;;;;-144.30;32.61;81692.91;5089269;28;20198;-57
2023/08/18 05:11:44;;;;;;;10.32;7.50;;;;;;;-144.30;31.97;81540.00;5089746;28;20256;-47
2023/08/18 05:14:32;;;;;;;13.60;7.63;;;;;;;-144.30;30.87;81273.91;5089650;28;20203;-55
2023/08/18 05:17:19;;;;;;;12.35;8.15;;;;;;;-144.30;30.98;81373.19;5089186;28;20201;-47
2023/08/18 05:20:11;;;;;;;9.45;7.45;;;;;;;-144.30;30.86;81299.72;5088814;28;20201;-55
2023/08/18 05:22:58;;;;;;;13.25;11.90;;;;;;;-144.30;30.33;81121.03;5089638;28;20637;-56
2023/08/18 05:25:54;;;;;;;12.23;8.38;;;;;;;-144.30;29.27;80872.88;5088843;28;20194;-56
2023/08/18 05:28:43;;;;;;;13.68;7.15;;;;;;;-144.30;28.85;80642.56;5086141;28;20254;-55
2023/08/18 05:31:34;;;;;;;12.73;8.23;;;;;;;-144.30;28.67;80630.66;5089454;28;20298;-54
2023/08/18 05:34:27;;;;;;;9.50;8.82;;;;;;;-144.30;29.07;80739.84;5087505;28;20216;-47
2023/08/18 05:37:17;;;;;;;11.20;9.35;;;;;;;-144.30;29.03;80751.75;5089448;28;20213;-54
2023/08/18 05:40:03;;;;;;;10.13;7.65;;;;;;;-144.30;29.28;80815.28;5088719;28;20191;-47
2023/08/18 05:42:40;;;;;;;13.00;6.57;;;;;;;-144.30;29.22;80962.19;5089390;28;20277;-55
2023/08/18 05:45:36;;;;;;;9.43;6.65;;;;;;;-144.30;30.11;81039.63;5084704;28;20280;-56
2023/08/18 05:48:47;;;;;;;9.45;8.40;;;;;;;-144.30;29.54;81019.78;5082870;28;20220;-56
2023/08/18 06:01:21;;;;;;;9.00;5.93;;;;;;;-144.30;28.13;80533.38;5071851;28;20233;-55
2023/08/18 06:03:52;;;;;;;10.00;6.25;;;;;;;-144.30;28.12;80551.25;5090224;28;20268;-56
2023/08/18 06:06:24;;;;;;;11.23;6.25;;;;;;;-144.30;28.16;80465.91;5089734;28;20209;-47
2023/08/18 06:08:58;;;;;;;10.98;6.25;;;;;;;-144.30;27.73;80612.78;5072810;28;20290;-47
2023/08/18 06:11:30;;;;;;;10.23;6.25;;;;;;;-144.30;27.92;80535.38;5072516;28;20575;-55
2023/08/18 06:14:07;;;;;;;9.00;6.15;;;;;;;-144.30;28.03;80467.88;5072598;28;20298;-47
2023/08/18 06:16:37;;;;;;;8.20;6.07;;;;;;;-144.30;27.42;80299.16;5072803;28;20630;-46
2023/08/18 06:19:08;;;;;;;9.43;6.53;;;;;;;-144.30;27.50;80350.75;5072321;28;20562;-56
2023/08/18 06:21:37;;;;;;;10.60;6.35;;;;;;;-144.30;27.64;80412.28;5072390;28;20223;-47
2023/08/18 06:24:11;;;;;;;15.77;6.82;;;;;;;-144.30;27.70;80380.53;5072246;28;20581;-55
2023/08/18 06:26:42;;;;;;;14.90;6.18;;;;;;;-144.30;28.13;80600.88;5072428;28;20313;-55
2023/08/18 06:29:15;;;;;;;7.43;6.07;;;;;;;-144.30;28.64;80845.06;5072674;28;20235;-47
2023/08/18 06:31:48;;;;;;;10.90;6.50;;;;;;;-144.30;29.11;80827.19;5072432;28;20273;-55
2023/08/18 06:34:16;;;;;;;8.63;6.30;;;;;;;-144.30;28.74;80767.63;5071776;28;20199;-56
2023/08/18 06:36:50;;;;;;;8.45;6.35;;;;;;;-144.30;28.46;80654.47;5071150;28;20468;-46
2023/08/18 06:39:23;;;;;;;8.70;6.07;;;;;;;-144.30;28.90;80773.59;5072175;28;20282;-55
2023/08/18 06:41:57;;;;;;;10.20;6.93;;;;;;;-144.30;28.95;80743.81;5071602;28;20364;-56
2023/08/18 06:44:27;;;;;;;15.40;6.25;;;;;;;-144.30;28.27;80527.44;5072078;28;20199;-55
2023/08/18 06:46:56;;;;;;;9.05;6.07;;;;;;;-144.30;28.29;80481.78;5071816;28;20639;-55
2023/08/18 06:49:25;;;;;;;7.05;5.75;;;;;;;-144.30;27.93;80297.16;5071927;28;20199;-55
2023/08/18 06:51:54;;;;;;;12.20;5.80;;;;;;;-144.30;27.91;80418.25;5071767;28;20636;-55
2023/08/18 06:54:24;;;;;;;8.55;5.95;;;;;;;-144.30;27.75;80324.94;5071877;28;20282;-44
2023/08/18 06:56:56;;;;;;;10.93;6.18;;;;;;;-144.30;27.90;80291.22;5071716;28;20786;-50
2023/08/18 06:59:28;;;;;;;7.10;5.63;;;;;;;-144.30;27.67;80297.16;5071882;28;20231;-55
2023/08/18 07:01:55;;;;;;;5.90;5.40;;;;;;;-144.30;27.99;80408.31;5071702;28;20326;-55
2023/08/18 07:04:22;;;;;;;6.32;5.72;;;;;;;-144.30;28.23;80465.91;5071642;28;20273;-56
2023/08/18 07:06:49;;;;;;;32.95;8.27;;;;;;;-144.30;28.17;80424.22;5071999;28;20200;-55
2023/08/18 07:09:19;;;;;;;26.95;6.78;;;;;;;-144.30;28.28;80483.75;5072187;28;20195;-55
2023/08/18 07:11:47;;;;;;;18.38;6.28;;;;;;;-144.30;28.19;80400.38;5071419;28;20283;-47
2023/08/18 07:14:18;;;;;;;10.18;6.50;;;;;;;-144.30;28.15;80370.59;5071619;28;20196;-54
2023/08/18 07:16:49;;;;;;;6.28;5.70;;;;;;;-144.30;27.87;80378.56;5070273;28;20198;-55
2023/08/18 07:19:21;;;;;;;7.55;5.93;;;;;;;-144.30;27.59;80307.09;5071220;28;20241;-55
2023/08/18 07:21:54;;;;;;;7.70;5.68;;;;;;;-144.30;27.39;80090.72;5070151;28;20219;-55
2023/08/18 07:24:24;;;;;;;11.77;5.72;;;;;;;-144.30;27.21;80025.22;5071626;28;20199;-56
2023/08/18 07:26:56;;;;;;;6.32;5.82;;;;;;;-144.30;26.57;79705.69;5071602;28;20206;-46
2023/08/18 07:29:33;;;;;;;6.00;5.57;;;;;;;-144.30;25.92;79537.00;5071394;28;20210;-57
2023/08/18 07:32:07;;;;;;;5.70;5.28;;;;;;;-144.30;25.78;79542.94;5071124;28;20187;-47
2023/08/18 07:34:36;;;;;;;9.13;6.10;;;;;;;-144.30;25.70;79457.59;5071184;28;20200;-46
2023/08/18 07:37:10;;;;;;;6.30;5.68;;;;;;;-144.30;25.98;79390.13;5071287;28;20671;-56
2023/08/18 07:39:39;;;;;;;6.75;5.95;;;;;;;-144.30;26.00;79632.25;5071300;28;20197;-47
2023/08/18 07:42:12;;;;;;;9.57;5.70;;;;;;;-144.30;26.04;79564.78;5070881;28;20221;-55
2023/08/18 07:44:44;;;;;;;12.27;6.15;;;;;;;-144.30;25.80;79417.91;5071100;28;20329;-48
2023/08/18 07:47:14;;;;;;;8.85;6.68;;;;;;;-144.30;26.16;79544.94;5070750;28;20861;-54
2023/08/18 07:49:45;;;;;;;11.40;6.55;;;;;;;-144.30;25.94;79467.53;5070979;28;20195;-55
2023/08/18 07:52:17;;;;;;;32.35;7.05;;;;;;;-144.30;25.81;79513.19;5070727;28;20237;-55
2023/08/18 07:54:46;;;;;;;10.20;5.95;;;;;;;-144.30;25.64;79560.81;5070808;28;20286;-56
2023/08/18 07:57:17;;;;;;;12.98;6.63;;;;;;;-144.30;25.80;79548.91;5070491;28;20637;-55
2023/08/18 07:59:47;;;;;;;6.57;6.10;;;;;;;-144.30;25.59;79705.69;5070849;28;20668;-55
2023/08/18 08:02:16;;;;;;;8.52;6.15;;;;;;;-144.30;26.17;79935.91;5070215;28;20306;-46
2023/08/18 08:04:48;;;;;;;31.08;7.22;;;;;;;-144.30;26.63;80195.94;5070344;28;20229;-46
2023/08/18 08:07:24;;;;;;;8.55;6.15;;;;;;;-144.30;26.65;80102.63;5070505;28;20715;-47
2023/08/18 08:10:02;;;;;;;8.98;4.95;;;;;;;-144.30;26.37;80301.13;5070131;28;20645;-46
2023/08/18 08:12:34;;;;;;;5.88;5.10;;;;;;;-144.30;26.99;80275.34;5070477;28;20192;-47
2023/08/18 08:15:03;;;;;;;6.00;5.43;;;;;;;-144.30;26.74;80188.00;5070387;28;20206;-55
2023/08/18 08:17:38;;;;;;;16.05;6.38;;;;;;;-144.30;26.78;80243.56;5069554;28;20208;-46
2023/08/18 08:20:14;;;;;;;20.27;6.25;;;;;;;-144.30;26.56;80215.78;5070313;28;20199;-47
2023/08/18 08:22:42;;;;;;;11.85;5.25;;;;;;;-144.30;26.09;79834.69;5070231;28;20219;-47
2023/08/18 08:25:17;;;;;;;8.10;4.78;;;;;;;-144.30;25.49;79525.09;5069451;28;20192;-46
2023/08/18 08:27:52;;;;;;;6.45;5.07;;;;;;;-144.30;25.12;79473.50;5070262;28;20199;-56
2023/08/18 08:30:25;;;;;;;5.50;5.10;;;;;;;-144.30;25.42;79473.50;5070186;28;20199;-55
2023/08/18 08:33:02;;;;;;;5.78;5.22;;;;;;;-144.30;25.27;79402.03;5070041;28;20656;-56
2023/08/18 08:35:30;;;;;;;9.23;5.90;;;;;;;-144.30;25.76;79624.31;5070037;28;20195;-47
2023/08/18 08:38:03;;;;;;;6.07;5.18;;;;;;;-144.30;25.82;79842.63;5070130;28;20195;-55
2023/08/18 08:40:37;;;;;;;8.80;5.72;;;;;;;-144.30;25.67;79739.44;5070027;28;20287;-55
2023/08/18 08:43:09;;;;;;;6.13;5.28;;;;;;;-144.30;25.85;79707.66;5068816;28;20229;-56
2023/08/18 08:46:02;;;;;;;11.25;6.07;;;;;;;-144.30;26.56;80066.91;5070068;28;20226;-57
2023/08/18 08:49:02;;;;;;;15.45;5.88;;;;;;;-144.30;27.12;80305.09;5069265;28;20679;-56
2023/08/18 08:51:48;;;;;;;96.35;10.38;;;;;;;-144.30;26.91;80255.47;5069816;28;20256;-55
2023/08/18 08:54:31;;;;;;;27.23;6.35;;;;;;;-144.30;26.68;80144.31;5069819;28;20188;-56
2023/08/18 08:57:12;;;;;;;12.68;6.72;;;;;;;-144.30;26.31;80102.63;5070345;28;20703;-55
2023/08/18 08:59:46;;;;;;;14.57;6.35;;;;;;;-144.30;26.97;80170.13;5069912;28;20191;-55
2023/08/18 09:02:17;;;;;;;17.90;6.72;;;;;;;-144.30;26.82;80271.34;5069552;28;20226;-55
2023/08/18 09:04:54;;;;;;;14.43;6.03;;;;;;;-144.30;26.99;80269.38;5069688;28;20758;-55
2023/08/18 09:07:26;;;;;;;10.80;5.68;;;;;;;-144.30;27.18;80491.69;5070159;28;20195;-55
2023/08/18 09:09:54;;;;;;;8.70;5.40;;;;;;;-144.30;27.41;80565.16;5069426;28;20207;-47
2023/08/18 09:12:39;;;;;;;6.18;5.38;;;;;;;-144.30;27.68;80686.25;5069509;28;20579;-55
2023/08/18 09:15:33;;;;;;;9.57;6.55;;;;;;;-144.30;28.43;80874.84;5068428;28;20203;-46
2023/08/18 09:21:38;;;;;;;6.05;5.55;;;;;;;-144.30;28.69;81029.72;5067763;28;20203;-57
2023/08/18 09:24:09;;;;;;;7.80;5.38;;;;;;;-144.30;28.39;81019.78;5068374;28;20195;-46
2023/08/18 09:26:41;;;;;;;6.90;5.07;;;;;;;-144.30;28.46;81033.69;5073626;28;20190;-54
2023/08/18 09:29:11;;;;;;;9.10;5.60;;;;;;;-144.30;28.95;81057.50;5085887;28;20190;-54
2023/08/18 09:31:43;;;;;;;6.20;5.70;;;;;;;-144.30;28.61;80960.22;5087087;28;20697;-55
2023/08/18 09:34:24;;;;;;;8.07;5.30;;;;;;;-144.30;28.32;80908.59;5088870;28;20278;-46
2023/08/18 09:36:58;;;;;;;6.60;5.18;;;;;;;-144.30;27.90;80851.03;5088880;28;20230;-46
2023/08/18 09:39:27;;;;;;;10.23;5.43;;;;;;;-144.30;28.17;80835.13;5091014;28;20194;-46
2023/08/18 09:42:00;;;;;;;8.95;4.85;;;;;;;-144.30;28.88;81077.34;5090147;28;20694;-55
2023/08/18 09:44:37;;;;;;;5.90;5.22;;;;;;;-144.30;29.23;81111.13;5093161;28;20196;-55
2023/08/18 09:47:11;;;;;;;7.38;5.30;;;;;;;-144.30;29.07;81216.34;5090730;28;20228;-56
2023/08/18 09:49:43;;;;;;;7.28;5.50;;;;;;;-144.30;28.96;81061.47;5090771;28;20203;-47
2023/08/18 09:52:17;;;;;;;5.68;5.07;;;;;;;-144.30;28.50;81011.84;5092532;28;20277;-46
2023/08/18 09:54:51;;;;;;;6.10;4.97;;;;;;;-144.30;28.31;80856.97;5092789;28;20198;-47
2023/08/18 09:57:27;;;;;;;4.93;4.63;;;;;;;-144.30;28.00;80692.19;5090030;28;20228;-55
2023/08/18 09:59:59;;;;;;;6.35;5.07;;;;;;;-144.30;27.28;80509.56;5089837;28;20277;-56
2023/08/18 10:02:37;;;;;;;6.38;4.97;;;;;;;-144.30;27.71;80666.41;5092493;28;20219;-45
2023/08/18 10:05:07;;;;;;;8.30;5.10;;;;;;;-144.30;27.40;80517.50;5051205;28;20196;-46
2023/08/18 10:07:37;;;;;;;16.02;5.30;;;;;;;-144.30;27.44;80682.28;5049695;28;20192;-55
2023/08/18 10:10:10;;;;;;;44.20;6.75;;;;;;;-144.30;27.61;80656.47;5052233;28;20198;-55
2023/08/18 10:12:39;;;;;;;28.58;6.88;;;;;;;-144.30;27.64;80749.78;5049942;28;20546;-56
2023/08/18 10:15:12;;;;;;;5.80;5.30;;;;;;;-144.30;28.07;80952.28;5052110;28;20192;-46
2023/08/18 10:17:43;;;;;;;5.72;5.22;;;;;;;-144.30;28.43;80982.06;5050274;28;20242;-47
2023/08/18 10:20:14;;;;;;;8.35;5.03;;;;;;;-144.30;28.55;81077.34;5052027;28;20680;-47
2023/08/18 10:22:49;;;;;;;5.50;5.20;;;;;;;-144.30;28.70;81095.22;5052016;28;20224;-45
2023/08/18 10:25:28;;;;;;;5.75;5.15;;;;;;;-144.30;29.20;81339.44;5049297;28;20311;-45
2023/08/18 10:27:56;;;;;;;8.10;5.38;;;;;;;-144.30;29.84;81442.69;5049185;28;20200;-46
2023/08/18 10:30:32;;;;;;;11.73;5.25;;;;;;;-144.30;30.06;81502.28;5051542;28;20228;-46
2023/08/18 10:33:08;;;;;;;5.45;4.57;;;;;;;-144.30;30.98;81736.59;5049730;28;20188;-45
2023/08/18 10:35:43;;;;;;;6.20;5.22;;;;;;;-144.30;31.32;81847.78;5049348;28;20639;-45
2023/08/18 10:38:13;;;;;;;10.45;5.45;;;;;;;-144.30;31.54;81895.47;5051466;28;20234;-55
2023/08/18 10:40:46;;;;;;;7.88;5.57;;;;;;;-144.30;31.95;82046.41;5051802;28;20727;-55
2023/08/18 10:43:16;;;;;;;10.65;5.65;;;;;;;-144.30;32.36;82056.31;5051457;28;20231;-54
2023/08/18 10:45:52;;;;;;;10.18;5.68;;;;;;;-144.30;32.41;82062.28;5051678;28;20204;-55
2023/08/18 10:48:23;;;;;;;13.20;6.18;;;;;;;-144.30;32.49;82040.44;5049418;28;20192;-55
2023/08/18 10:50:53;;;;;;;15.85;5.93;;;;;;;-144.30;32.57;82046.41;5051404;28;20203;-55
2023/08/18 10:53:24;;;;;;;12.82;5.93;;;;;;;-144.30;32.74;82038.44;5051829;28;20215;-55
2023/08/18 10:55:56;;;;;;;13.15;6.18;;;;;;;-144.30;32.56;82034.47;5051403;28;20256;-55
2023/08/18 10:58:25;;;;;;;8.77;5.75;;;;;;;-144.30;32.22;82024.56;5051466;28;20208;-54
2023/08/18 11:00:55;;;;;;;8.15;5.20;;;;;;;-144.30;31.33;82072.22;5050801;28;20283;-45
2023/08/18 11:03:23;;;;;;;5.78;4.55;;;;;;;-144.30;30.64;82121.88;5065683;28;20223;-56
2023/08/18 11:05:53;;;;;;;9.63;4.78;;;;;;;-144.30;30.41;82117.88;5091699;28;20203;-46
2023/08/18 11:08:25;;;;;;;11.30;4.97;;;;;;;-144.30;30.02;82123.84;5090388;28;20206;-46
2023/08/18 11:10:53;;;;;;;10.45;5.00;;;;;;;-144.30;29.84;82080.16;5091355;28;20183;-53
2023/08/18 11:13:26;;;;;;;5.28;4.78;;;;;;;-144.30;29.00;82010.66;5091784;28;20574;-55
2023/08/18 11:15:58;;;;;;;4.50;4.18;;;;;;;-144.30;29.65;82072.22;5091241;28;20209;-54
2023/08/18 11:18:28;;;;;;;4.72;4.32;;;;;;;-144.30;30.10;82018.59;5091237;28;20710;-55
2023/08/18 11:21:01;;;;;;;6.88;4.70;;;;;;;-144.30;30.03;82004.69;5088361;28;20199;-45
2023/08/18 11:23:34;;;;;;;4.50;4.15;;;;;;;-144.30;30.28;82010.66;5091139;28;20219;-54
2023/08/18 11:26:04;;;;;;;5.65;4.68;;;;;;;-144.30;30.43;82036.47;5089203;28;20256;-46
2023/08/18 11:28:34;;;;;;;5.60;4.40;;;;;;;-144.30;30.14;81935.19;5090214;28;20234;-45
2023/08/18 11:31:08;;;;;;;9.15;4.40;;;;;;;-144.30;30.22;82066.25;5091009;28;20256;-46
2023/08/18 11:33:41;;;;;;;6.32;4.60;;;;;;;-144.30;30.44;82050.38;5088317;28;20187;-55
2023/08/18 11:36:14;;;;;;;5.70;4.68;;;;;;;-144.30;30.60;82070.22;5090847;28;20195;-46
2023/08/18 11:38:43;;;;;;;5.40;4.40;;;;;;;-144.30;30.86;82094.06;5088840;28;20211;-45
2023/08/18 11:41:14;;;;;;;4.78;4.47;;;;;;;-144.30;30.43;82111.94;5090190;28;20231;-46
2023/08/18 11:43:47;;;;;;;8.00;4.70;;;;;;;-144.30;30.74;82113.91;5087948;28;20298;-46
2023/08/18 11:46:20;;;;;;;8.32;4.82;;;;;;;-144.30;30.48;82141.72;5090589;28;20686;-54
2023/08/18 11:48:50;;;;;;;4.70;4.47;;;;;;;-144.30;30.79;82068.25;5089482;28;20199;-55
2023/08/18 11:51:20;;;;;;;10.02;4.57;;;;;;;-144.30;30.52;82084.13;5087959;28;20278;-55
2023/08/18 11:53:53;;;;;;;7.28;4.93;;;;;;;-144.30;30.80;82084.13;5090581;28;20191;-55
2023/08/18 11:56:26;;;;;;;5.10;4.80;;;;;;;-144.30;30.71;82084.13;5088884;28;20191;-46
2023/08/18 11:58:55;;;;;;;6.05;4.45;;;;;;;-144.30;30.78;82058.31;5090429;28;20195;-46
2023/08/18 12:01:32;;;;;;;4.97;4.60;;;;;;;-144.30;30.67;82105.97;5089722;28;20590;-47
2023/08/18 12:04:03;;;;;;;8.80;5.05;;;;;;;-144.30;30.67;82100.00;5084872;28;20231;-46
2023/08/18 12:06:32;;;;;;;5.30;4.90;;;;;;;-144.30;30.81;82113.91;5078854;28;20207;-45
2023/08/18 12:09:03;;;;;;;5.07;4.78;;;;;;;-144.30;31.27;82143.72;5090295;28;20748;-45
2023/08/18 12:11:35;;;;;;;5.25;4.70;;;;;;;-144.30;31.35;82145.69;5090338;28;20594;-56
2023/08/18 12:14:04;;;;;;;5.95;5.43;;;;;;;-144.30;31.50;82177.47;5090365;28;20648;-46
2023/08/18 12:16:31;;;;;;;6.63;5.25;;;;;;;-144.30;31.95;82207.25;5090535;28;20253;-47
2023/08/18 12:18:58;;;;;;;11.15;5.53;;;;;;;-144.30;31.99;82157.63;5090251;28;20199;-53
2023/08/18 12:21:25;;;;;;;8.52;4.88;;;;;;;-144.30;31.61;82141.72;5090187;28;20206;-46
2023/08/18 12:23:52;;;;;;;5.63;5.07;;;;;;;-144.30;31.60;82117.88;5090540;28;20630;-55
2023/08/18 12:26:20;;;;;;;8.77;5.40;;;;;;;-144.30;31.25;82123.84;5090249;28;20199;-46
2023/08/18 12:28:47;;;;;;;5.57;5.07;;;;;;;-144.30;31.53;82042.41;5088119;28;20203;-46
2023/08/18 12:31:17;;;;;;;7.35;4.97;;;;;;;-144.30;31.77;82111.94;5085241;28;20199;-46
2023/08/18 12:33:44;;;;;;;6.40;5.15;;;;;;;-144.30;31.46;82129.81;5089748;28;20198;-46
2023/08/18 12:36:12;;;;;;;13.15;5.35;;;;;;;-144.30;31.66;82121.88;5084199;28;20628;-56
2023/08/18 12:38:39;;;;;;;7.30;5.03;;;;;;;-144.30;31.27;82129.81;5090070;28;20222;-55
2023/08/18 12:41:06;;;;;;;5.10;4.75;;;;;;;-144.30;31.06;82129.81;5081476;28;20240;-47
2023/08/18 12:43:41;;;;;;;7.00;5.47;;;;;;;-144.30;31.32;82117.88;5069726;28;20226;-54
2023/08/18 12:46:11;;;;;;;10.10;4.88;;;;;;;-144.30;30.74;82084.13;5069694;28;20634;-55
2023/08/18 12:48:43;;;;;;;7.78;5.38;;;;;;;-144.30;30.32;82102.00;5088049;28;20271;-55
2023/08/18 12:51:17;;;;;;;9.05;5.60;;;;;;;-144.30;30.15;82060.28;5088557;28;20195;-46
2023/08/18 12:56:49;;;;;;;4.97;4.60;;;;;;;-144.30;30.34;82062.28;5088937;28;20577;-46
2023/08/18 12:59:25;;;;;;;6.55;4.85;;;;;;;-144.30;30.32;82062.28;5089913;28;20195;-46
2023/08/18 13:01:54;;;;;;;5.47;4.70;;;;;;;-144.30;30.04;82082.13;5089722;28;20199;-55
2023/08/18 13:04:31;;;;;;;5.00;4.50;;;;;;;-144.30;29.80;82111.94;5089676;28;20237;-46
2023/08/18 13:07:02;;;;;;;5.28;4.97;;;;;;;-144.30;30.18;82078.16;5089894;28;20592;-46
2023/08/18 13:09:35;;;;;;;5.35;4.60;;;;;;;-144.30;29.69;82129.81;5089678;28;20206;-46
2023/08/18 13:12:07;;;;;;;5.28;4.75;;;;;;;-144.30;29.58;82092.06;5089582;28;20195;-55
2023/08/18 13:14:37;;;;;;;4.57;4.28;;;;;;;-144.30;29.96;82096.03;5084650;28;20609;-55
2023/08/18 13:17:09;;;;;;;5.80;4.85;;;;;;;-144.30;29.92;82090.09;5088108;28;20602;-46
2023/08/18 13:19:38;;;;;;;7.38;4.35;;;;;;;-144.30;29.62;82054.34;5089397;28;20199;-47
2023/08/18 13:22:07;;;;;;;6.60;4.25;;;;;;;-144.30;29.89;82032.50;5089172;28;20231;-46
2023/08/18 13:24:37;;;;;;;7.80;4.32;;;;;;;-144.30;29.02;81931.22;5089183;28;20254;-45
2023/08/18 13:27:10;;;;;;;15.70;3.92;;;;;;;-144.30;28.64;82070.22;5089195;28;20511;-56
2023/08/18 13:29:44;;;;;;;5.07;3.70;;;;;;;-144.30;28.43;82038.44;5088832;28;20199;-46
2023/08/18 13:32:16;;;;;;;5.70;3.65;;;;;;;-144.30;28.07;82052.34;5089183;28;20585;-55
2023/08/18 13:34:43;;;;;;;4.18;3.88;;;;;;;-144.30;27.92;82026.53;5089507;28;20249;-54
2023/08/18 13:37:13;;;;;;;6.97;3.45;;;;;;;-144.30;28.16;82066.25;5089476;28;20206;-56
2023/08/18 13:39:41;;;;;;;5.68;3.67;;;;;;;-144.30;27.94;82054.34;5089132;28;20264;-46
2023/08/18 13:42:13;;;;;;;7.35;4.05;;;;;;;-144.30;27.67;82056.31;5089360;28;20199;-46
2023/08/18 13:44:45;;;;;;;4.30;3.55;;;;;;;-144.30;27.52;82050.38;5089203;28;20305;-47
2023/08/18 13:47:15;;;;;;;6.15;3.38;;;;;;;-144.30;27.59;82054.34;5089223;28;20679;-55